sensor_id;sensor_type;location;lat;lon;timestamp;pressure;altitude;pressure_sealevel;temperature;humidity
15634;BME280;14654;48.898;8.308;2024-01-11T00:01:58;101384.09;;;-2.91;100.00
15634;BME280;14654;48.898;8.308;2024-01-11T00:04:24;101380.50;;;-2.95;100.00
15634;BME280;14654;48.898;8.308;2024-01-11T00:06:49;101379.81;;;-2.92;100.00
15634;BME280;14654;48.898;8.308;2024-01-11T00:09:15;101382.47;;;-3.04;100.00
15634;BME280;14654;48.898;8.308;2024-01-11T00:11:40;101377.06;;;-3.09;100.00
15634;BME280;14654;48.898;8.308;2024-01-11T00:14:05;101382.53;;;-3.02;100.00
15634;BME280;14654;48.898;8.308;2024-01-11T00:16:31;101390.13;;;-2.89;100.00
15634;BME280;14654;48.898;8.308;2024-01-11T00:18:56;101385.38;;;-2.98;100.00
15634;BME280;14654;48.898;8.308;2024-01-11T00:21:21;101391.97;;;-3.00;100.00
15634;BME280;14654;48.898;8.308;2024-01-11T00:23:46;101391.41;;;-3.09;100.00
15634;BME280;14654;48.898;8.308;2024-01-11T00:26:12;101387.88;;;-3.11;100.00
15634;BME280;14654;48.898;8.308;2024-01-11T00:28:38;101378.81;;;-3.08;100.00
15634;BME280;14654;48.898;8.308;2024-01-11T00:31:03;101384.66;;;-3.22;100.00
15634;BME280;14654;48.898;8.308;2024-01-11T00:33:28;101383.88;;;-3.08;100.00
15634;BME280;14654;48.898;8.308;2024-01-11T00:35:54;101382.53;;;-3.16;100.00
15634;BME280;14654;48.898;8.308;2024-01-11T00:38:19;101382.41;;;-3.17;100.00
15634;BME280;14654;48.898;8.308;2024-01-11T00:40:45;101378.25;;;-3.17;100.00
15634;BME280;14654;48.898;8.308;2024-01-11T00:43:10;101379.81;;;-3.19;100.00
15634;BME280;14654;48.898;8.308;2024-01-11T00:45:36;101387.47;;;-3.17;100.00
15634;BME280;14654;48.898;8.308;2024-01-11T00:48:01;101375.00;;;-3.41;100.00
15634;BME280;14654;48.898;8.308;2024-01-11T00:50:27;101384.47;;;-3.25;100.00
15634;BME280;14654;48.898;8.308;2024-01-11T00:52:53;101374.78;;;-3.44;100.00
15634;BME280;14654;48.898;8.308;2024-01-11T00:55:18;101382.88;;;-3.37;100.00
15634;BME280;14654;48.898;8.308;2024-01-11T00:57:43;101386.09;;;-3.39;100.00
15634;BME280;14654;48.898;8.308;2024-01-11T01:00:10;101383.19;;;-3.32;100.00
15634;BME280;14654;48.898;8.308;2024-01-11T01:02:39;101379.97;;;-3.43;100.00
15634;BME280;14654;48.898;8.308;2024-01-11T01:05:04;101381.50;;;-3.58;100.00
15634;BME280;14654;48.898;8.308;2024-01-11T01:07:30;101386.53;;;-3.33;100.00
15634;BME280;14654;48.898;8.308;2024-01-11T01:09:55;101383.88;;;-3.34;100.00
15634;BME280;14654;48.898;8.308;2024-01-11T01:12:20;101390.97;;;-3.42;100.00
15634;BME280;14654;48.898;8.308;2024-01-11T01:14:45;101387.66;;;-3.41;100.00
15634;BME280;14654;48.898;8.308;2024-01-11T01:17:11;101377.44;;;-3.43;100.00
15634;BME280;14654;48.898;8.308;2024-01-11T01:19:36;101376.84;;;-3.39;100.00
15634;BME280;14654;48.898;8.308;2024-01-11T01:22:01;101385.41;;;-3.37;100.00
15634;BME280;14654;48.898;8.308;2024-01-11T01:24:27;101385.34;;;-3.38;100.00
15634;BME280;14654;48.898;8.308;2024-01-11T01:26:52;101378.44;;;-3.41;100.00
15634;BME280;14654;48.898;8.308;2024-01-11T01:29:17;101385.34;;;-3.38;100.00
15634;BME280;14654;48.898;8.308;2024-01-11T01:31:43;101385.69;;;-3.45;100.00
15634;BME280;14654;48.898;8.308;2024-01-11T01:34:08;101393.41;;;-3.44;100.00
15634;BME280;14654;48.898;8.308;2024-01-11T01:36:33;101383.06;;;-3.47;100.00
15634;BME280;14654;48.898;8.308;2024-01-11T01:38:59;101384.25;;;-3.42;100.00
15634;BME280;14654;48.898;8.308;2024-01-11T01:41:24;101395.16;;;-3.43;100.00
15634;BME280;14654;48.898;8.308;2024-01-11T01:43:49;101405.16;;;-3.44;100.00
15634;BME280;14654;48.898;8.308;2024-01-11T01:46:19;101396.78;;;-3.57;100.00
15634;BME280;14654;48.898;8.308;2024-01-11T01:48:47;101400.50;;;-3.52;100.00
15634;BME280;14654;48.898;8.308;2024-01-11T01:51:12;101407.19;;;-3.52;100.00
15634;BME280;14654;48.898;8.308;2024-01-11T01:53:38;101414.22;;;-3.48;100.00
15634;BME280;14654;48.898;8.308;2024-01-11T01:56:04;101407.88;;;-3.55;100.00
15634;BME280;14654;48.898;8.308;2024-01-11T01:58:30;101421.72;;;-3.49;100.00
15634;BME280;14654;48.898;8.308;2024-01-11T02:00:56;101422.56;;;-3.62;100.00
15634;BME280;14654;48.898;8.308;2024-01-11T02:03:24;101418.69;;;-3.57;100.00
15634;BME280;14654;48.898;8.308;2024-01-11T02:05:52;101417.69;;;-3.59;100.00
15634;BME280;14654;48.898;8.308;2024-01-11T02:08:21;101418.69;;;-3.57;100.00
15634;BME280;14654;48.898;8.308;2024-01-11T02:10:47;101415.25;;;-3.58;100.00
15634;BME280;14654;48.898;8.308;2024-01-11T02:13:13;101411.75;;;-3.60;100.00
15634;BME280;14654;48.898;8.308;2024-01-11T02:15:39;101406.13;;;-3.56;100.00
15634;BME280;14654;48.898;8.308;2024-01-11T02:18:04;101415.44;;;-3.68;100.00
15634;BME280;14654;48.898;8.308;2024-01-11T02:20:29;101411.06;;;-3.71;100.00
15634;BME280;14654;48.898;8.308;2024-01-11T02:23:00;101414.34;;;-3.72;100.00
15634;BME280;14654;48.898;8.308;2024-01-11T02:25:28;101408.22;;;-3.62;100.00
15634;BME280;14654;48.898;8.308;2024-01-11T02:27:53;101412.78;;;-3.70;100.00
15634;BME280;14654;48.898;8.308;2024-01-11T02:30:19;101409.59;;;-3.67;100.00
15634;BME280;14654;48.898;8.308;2024-01-11T02:32:45;101416.41;;;-3.66;100.00
15634;BME280;14654;48.898;8.308;2024-01-11T02:35:12;101410.06;;;-3.73;100.00
15634;BME280;14654;48.898;8.308;2024-01-11T02:37:38;101404.78;;;-3.76;100.00
15634;BME280;14654;48.898;8.308;2024-01-11T02:40:06;101408.09;;;-3.77;100.00
15634;BME280;14654;48.898;8.308;2024-01-11T02:42:33;101404.50;;;-3.80;100.00
15634;BME280;14654;48.898;8.308;2024-01-11T02:44:58;101416.63;;;-3.88;100.00
15634;BME280;14654;48.898;8.308;2024-01-11T02:47:23;101410.78;;;-3.87;100.00
15634;BME280;14654;48.898;8.308;2024-01-11T02:49:49;101416.81;;;-3.85;100.00
15634;BME280;14654;48.898;8.308;2024-01-11T02:52:15;101409.91;;;-3.88;100.00
15634;BME280;14654;48.898;8.308;2024-01-11T02:54:40;101403.47;;;-3.96;100.00
15634;BME280;14654;48.898;8.308;2024-01-11T02:57:05;101411.56;;;-3.88;100.00
15634;BME280;14654;48.898;8.308;2024-01-11T02:59:30;101410.38;;;-3.93;100.00
15634;BME280;14654;48.898;8.308;2024-01-11T03:01:56;101411.22;;;-3.93;100.00
15634;BME280;14654;48.898;8.308;2024-01-11T03:04:21;101408.38;;;-3.98;100.00
15634;BME280;14654;48.898;8.308;2024-01-11T03:06:47;101397.38;;;-3.86;100.00
15634;BME280;14654;48.898;8.308;2024-01-11T03:09:12;101403.09;;;-3.89;100.00
15634;BME280;14654;48.898;8.308;2024-01-11T03:11:37;101400.69;;;-3.87;100.00
15634;BME280;14654;48.898;8.308;2024-01-11T03:14:03;101398.41;;;-3.96;100.00
15634;BME280;14654;48.898;8.308;2024-01-11T03:16:29;101388.81;;;-3.88;100.00
15634;BME280;14654;48.898;8.308;2024-01-11T03:18:54;101389.56;;;-3.89;100.00
15634;BME280;14654;48.898;8.308;2024-01-11T03:21:20;101383.75;;;-3.88;100.00
15634;BME280;14654;48.898;8.308;2024-01-11T03:23:45;101383.84;;;-3.87;100.00
15634;BME280;14654;48.898;8.308;2024-01-11T03:26:17;101387.03;;;-3.89;100.00
15634;BME280;14654;48.898;8.308;2024-01-11T03:28:43;101386.81;;;-3.92;100.00
15634;BME280;14654;48.898;8.308;2024-01-11T03:31:09;101386.06;;;-3.91;100.00
15634;BME280;14654;48.898;8.308;2024-01-11T03:33:35;101387.38;;;-3.96;100.00
15634;BME280;14654;48.898;8.308;2024-01-11T03:36:06;101383.09;;;-3.98;100.00
15634;BME280;14654;48.898;8.308;2024-01-11T03:38:31;101384.00;;;-3.97;100.00
15634;BME280;14654;48.898;8.308;2024-01-11T03:40:57;101381.56;;;-3.95;100.00
15634;BME280;14654;48.898;8.308;2024-01-11T03:43:22;101380.34;;;-4.01;100.00
15634;BME280;14654;48.898;8.308;2024-01-11T03:45:47;101387.38;;;-3.96;100.00
15634;BME280;14654;48.898;8.308;2024-01-11T03:48:13;101390.38;;;-4.02;100.00
15634;BME280;14654;48.898;8.308;2024-01-11T03:50:38;101385.31;;;-4.02;100.00
15634;BME280;14654;48.898;8.308;2024-01-11T03:53:03;101394.84;;;-3.86;100.00
15634;BME280;14654;48.898;8.308;2024-01-11T03:55:29;101392.44;;;-3.96;100.00
15634;BME280;14654;48.898;8.308;2024-01-11T03:57:54;101380.88;;;-3.93;100.00
15634;BME280;14654;48.898;8.308;2024-01-11T04:00:20;101377.41;;;-3.95;100.00
15634;BME280;14654;48.898;8.308;2024-01-11T04:02:45;101394.97;;;-3.96;100.00
15634;BME280;14654;48.898;8.308;2024-01-11T04:05:11;101372.13;;;-3.98;100.00
15634;BME280;14654;48.898;8.308;2024-01-11T04:07:36;101379.81;;;-3.96;100.00
15634;BME280;14654;48.898;8.308;2024-01-11T04:10:01;101391.47;;;-3.99;100.00
15634;BME280;14654;48.898;8.308;2024-01-11T04:12:27;101372.59;;;-4.04;100.00
15634;BME280;14654;48.898;8.308;2024-01-11T04:14:52;101382.25;;;-3.98;100.00
15634;BME280;14654;48.898;8.308;2024-01-11T04:17:17;101382.72;;;-4.04;100.00
15634;BME280;14654;48.898;8.308;2024-01-11T04:19:43;101378.13;;;-4.09;100.00
15634;BME280;14654;48.898;8.308;2024-01-11T04:22:08;101379.03;;;-3.95;100.00
15634;BME280;14654;48.898;8.308;2024-01-11T04:24:33;101374.88;;;-3.95;100.00
15634;BME280;14654;48.898;8.308;2024-01-11T04:26:59;101378.25;;;-3.94;100.00
15634;BME280;14654;48.898;8.308;2024-01-11T04:29:24;101370.59;;;-3.96;100.00
15634;BME280;14654;48.898;8.308;2024-01-11T04:31:49;101381.31;;;-3.87;100.00
15634;BME280;14654;48.898;8.308;2024-01-11T04:34:15;101372.53;;;-3.92;100.00
15634;BME280;14654;48.898;8.308;2024-01-11T04:36:40;101372.78;;;-4.01;100.00
15634;BME280;14654;48.898;8.308;2024-01-11T04:39:05;101377.19;;;-3.98;100.00
15634;BME280;14654;48.898;8.308;2024-01-11T04:41:34;101377.66;;;-4.04;100.00
15634;BME280;14654;48.898;8.308;2024-01-11T04:44:00;101380.72;;;-4.08;100.00
15634;BME280;14654;48.898;8.308;2024-01-11T04:46:25;101392.59;;;-4.07;100.00
15634;BME280;14654;48.898;8.308;2024-01-11T04:48:51;101388.31;;;-4.08;100.00
15634;BME280;14654;48.898;8.308;2024-01-11T04:51:17;101388.78;;;-4.14;100.00
15634;BME280;14654;48.898;8.308;2024-01-11T04:53:43;101382.97;;;-4.13;100.00
15634;BME280;14654;48.898;8.308;2024-01-11T04:56:11;101388.31;;;-4.08;100.00
15634;BME280;14654;48.898;8.308;2024-01-11T04:58:39;101379.66;;;-4.11;100.00
15634;BME280;14654;48.898;8.308;2024-01-11T05:01:05;101389.03;;;-4.22;100.00
15634;BME280;14654;48.898;8.308;2024-01-11T05:03:30;101386.81;;;-4.18;100.00
15634;BME280;14654;48.898;8.308;2024-01-11T05:05:57;101384.81;;;-4.10;100.00
15634;BME280;14654;48.898;8.308;2024-01-11T05:08:22;101388.66;;;-4.15;100.00
15634;BME280;14654;48.898;8.308;2024-01-11T05:10:48;101393.84;;;-4.14;100.00
15634;BME280;14654;48.898;8.308;2024-01-11T05:13:13;101387.13;;;-4.13;100.00
15634;BME280;14654;48.898;8.308;2024-01-11T05:15:38;101388.00;;;-4.13;100.00
15634;BME280;14654;48.898;8.308;2024-01-11T05:18:04;101399.44;;;-4.18;100.00
15634;BME280;14654;48.898;8.308;2024-01-11T05:20:29;101405.06;;;-4.22;100.00
15634;BME280;14654;48.898;8.308;2024-01-11T05:22:54;101400.53;;;-4.14;100.00
15634;BME280;14654;48.898;8.308;2024-01-11T05:25:20;101402.88;;;-4.17;100.00
15634;BME280;14654;48.898;8.308;2024-01-11T05:27:45;101405.59;;;-4.14;100.00
15634;BME280;14654;48.898;8.308;2024-01-11T05:30:11;101407.47;;;-4.11;100.00
15634;BME280;14654;48.898;8.308;2024-01-11T05:32:36;101407.03;;;-4.18;100.00
15634;BME280;14654;48.898;8.308;2024-01-11T05:35:01;101408.34;;;-4.23;100.00
15634;BME280;14654;48.898;8.308;2024-01-11T05:37:26;101424.41;;;-4.22;100.00
15634;BME280;14654;48.898;8.308;2024-01-11T05:39:52;101420.97;;;-4.11;100.00
15634;BME280;14654;48.898;8.308;2024-01-11T05:42:19;101427.16;;;-4.19;100.00
15634;BME280;14654;48.898;8.308;2024-01-11T05:44:44;101424.50;;;-4.21;100.00
15634;BME280;14654;48.898;8.308;2024-01-11T05:47:09;101430.00;;;-4.15;100.00
15634;BME280;14654;48.898;8.308;2024-01-11T05:49:35;101425.97;;;-4.24;100.00
15634;BME280;14654;48.898;8.308;2024-01-11T05:52:00;101433.09;;;-4.19;100.00
15634;BME280;14654;48.898;8.308;2024-01-11T05:54:25;101428.16;;;-4.17;100.00
15634;BME280;14654;48.898;8.308;2024-01-11T05:56:53;101433.41;;;-4.14;100.00
15634;BME280;14654;48.898;8.308;2024-01-11T05:59:21;101422.88;;;-4.20;100.00
15634;BME280;14654;48.898;8.308;2024-01-11T06:01:46;101439.28;;;-4.27;100.00
15634;BME280;14654;48.898;8.308;2024-01-11T06:04:12;101428.25;;;-4.16;100.00
15634;BME280;14654;48.898;8.308;2024-01-11T06:06:37;101422.50;;;-4.13;100.00
15634;BME280;14654;48.898;8.308;2024-01-11T06:09:02;101430.34;;;-4.22;100.00
15634;BME280;14654;48.898;8.308;2024-01-11T06:11:29;101422.97;;;-4.19;100.00
15634;BME280;14654;48.898;8.308;2024-01-11T06:13:55;101421.34;;;-4.18;100.00
15634;BME280;14654;48.898;8.308;2024-01-11T06:16:20;101412.31;;;-4.26;100.00
15634;BME280;14654;48.898;8.308;2024-01-11T06:18:46;101431.56;;;-4.29;100.00
15634;BME280;14654;48.898;8.308;2024-01-11T06:21:11;101425.41;;;-4.32;100.00
15634;BME280;14654;48.898;8.308;2024-01-11T06:23:36;101436.38;;;-4.20;100.00
15634;BME280;14654;48.898;8.308;2024-01-11T06:26:02;101432.00;;;-4.22;100.00
15634;BME280;14654;48.898;8.308;2024-01-11T06:28:28;101442.66;;;-4.26;100.00
15634;BME280;14654;48.898;8.308;2024-01-11T06:30:53;101425.50;;;-4.31;100.00
15634;BME280;14654;48.898;8.308;2024-01-11T06:33:18;101438.06;;;-4.32;100.00
15634;BME280;14654;48.898;8.308;2024-01-11T06:35:45;101440.59;;;-4.32;100.00
15634;BME280;14654;48.898;8.308;2024-01-11T06:38:10;101440.38;;;-4.35;100.00
15634;BME280;14654;48.898;8.308;2024-01-11T06:40:36;101439.59;;;-4.34;100.00
15634;BME280;14654;48.898;8.308;2024-01-11T06:43:01;101441.25;;;-4.35;100.00
15634;BME280;14654;48.898;8.308;2024-01-11T06:45:26;101446.97;;;-4.37;100.00
15634;BME280;14654;48.898;8.308;2024-01-11T06:47:52;101438.50;;;-4.38;100.00
15634;BME280;14654;48.898;8.308;2024-01-11T06:50:18;101443.88;;;-4.33;100.00
15634;BME280;14654;48.898;8.308;2024-01-11T06:52:43;101448.06;;;-4.34;100.00
15634;BME280;14654;48.898;8.308;2024-01-11T06:55:09;101453.44;;;-4.41;100.00
15634;BME280;14654;48.898;8.308;2024-01-11T06:57:36;101457.41;;;-4.33;100.00
15634;BME280;14654;48.898;8.308;2024-01-11T07:00:01;101461.56;;;-4.33;100.00
15634;BME280;14654;48.898;8.308;2024-01-11T07:02:27;101471.59;;;-4.35;100.00
15634;BME280;14654;48.898;8.308;2024-01-11T07:04:52;101466.75;;;-4.32;100.00
15634;BME280;14654;48.898;8.308;2024-01-11T07:07:18;101475.75;;;-4.35;100.00
15634;BME280;14654;48.898;8.308;2024-01-11T07:09:43;101473.75;;;-4.28;100.00
15634;BME280;14654;48.898;8.308;2024-01-11T07:12:09;101480.16;;;-4.33;100.00
15634;BME280;14654;48.898;8.308;2024-01-11T07:14:35;101484.09;;;-4.36;100.00
15634;BME280;14654;48.898;8.308;2024-01-11T07:17:00;101479.72;;;-4.27;100.00
15634;BME280;14654;48.898;8.308;2024-01-11T07:19:26;101482.78;;;-4.31;100.00
15634;BME280;14654;48.898;8.308;2024-01-11T07:21:51;101488.38;;;-4.35;100.00
15634;BME280;14654;48.898;8.308;2024-01-11T07:24:17;101495.19;;;-4.46;100.00
15634;BME280;14654;48.898;8.308;2024-01-11T07:26:43;101498.06;;;-4.41;100.00
15634;BME280;14654;48.898;8.308;2024-01-11T07:29:09;101494.22;;;-4.36;100.00
15634;BME280;14654;48.898;8.308;2024-01-11T07:31:34;101497.63;;;-4.36;100.00
15634;BME280;14654;48.898;8.308;2024-01-11T07:33:59;101496.94;;;-4.45;100.00
15634;BME280;14654;48.898;8.308;2024-01-11T07:36:25;101490.38;;;-4.43;100.00
15634;BME280;14654;48.898;8.308;2024-01-11T07:38:50;101504.31;;;-4.36;100.00
15634;BME280;14654;48.898;8.308;2024-01-11T07:41:15;101519.69;;;-4.45;100.00
15634;BME280;14654;48.898;8.308;2024-01-11T07:43:41;101526.75;;;-4.41;100.00
15634;BME280;14654;48.898;8.308;2024-01-11T07:46:06;101520.16;;;-4.27;100.00
15634;BME280;14654;48.898;8.308;2024-01-11T07:48:33;101522.69;;;-4.39;100.00
15634;BME280;14654;48.898;8.308;2024-01-11T07:50:59;101514.00;;;-4.42;100.00
15634;BME280;14654;48.898;8.308;2024-01-11T07:53:24;101527.19;;;-4.35;100.00
15634;BME280;14654;48.898;8.308;2024-01-11T07:55:51;101531.34;;;-4.35;100.00
15634;BME280;14654;48.898;8.308;2024-01-11T07:58:16;101536.31;;;-4.25;100.00
15634;BME280;14654;48.898;8.308;2024-01-11T08:00:41;101538.94;;;-4.35;100.00
15634;BME280;14654;48.898;8.308;2024-01-11T08:03:06;101550.25;;;-4.30;100.00
15634;BME280;14654;48.898;8.308;2024-01-11T08:05:33;101544.09;;;-4.22;100.00
15634;BME280;14654;48.898;8.308;2024-01-11T08:07:59;101548.28;;;-4.22;100.00
15634;BME280;14654;48.898;8.308;2024-01-11T08:10:27;101557.94;;;-4.17;100.00
15634;BME280;14654;48.898;8.308;2024-01-11T08:12:52;101558.50;;;-4.09;100.00
15634;BME280;14654;48.898;8.308;2024-01-11T08:15:17;101569.91;;;-4.02;100.00
15634;BME280;14654;48.898;8.308;2024-01-11T08:17:45;101575.75;;;-4.03;100.00
15634;BME280;14654;48.898;8.308;2024-01-11T08:20:11;101582.34;;;-4.05;100.00
15634;BME280;14654;48.898;8.308;2024-01-11T08:22:39;101573.66;;;-4.09;100.00
15634;BME280;14654;48.898;8.308;2024-01-11T08:25:04;101576.28;;;-3.95;100.00
15634;BME280;14654;48.898;8.308;2024-01-11T08:27:31;101575.44;;;-3.96;100.00
15634;BME280;14654;48.898;8.308;2024-01-11T08:29:57;101574.44;;;-3.98;100.00
15634;BME280;14654;48.898;8.308;2024-01-11T08:32:22;101569.69;;;-3.93;100.00
15634;BME280;14654;48.898;8.308;2024-01-11T08:34:47;101565.50;;;-3.81;100.00
15634;BME280;14654;48.898;8.308;2024-01-11T08:37:13;101555.69;;;-3.76;100.00
15634;BME280;14654;48.898;8.308;2024-01-11T08:39:40;101556.66;;;-3.74;100.00
15634;BME280;14654;48.898;8.308;2024-01-11T08:42:05;101557.66;;;-3.72;100.00
15634;BME280;14654;48.898;8.308;2024-01-11T08:44:30;101551.63;;;-3.74;100.00
15634;BME280;14654;48.898;8.308;2024-01-11T08:46:56;101558.22;;;-3.76;100.00
15634;BME280;14654;48.898;8.308;2024-01-11T08:49:22;101556.91;;;-3.83;100.00
15634;BME280;14654;48.898;8.308;2024-01-11T08:51:48;101559.66;;;-3.68;100.00
15634;BME280;14654;48.898;8.308;2024-01-11T08:54:13;101570.50;;;-3.57;100.00
15634;BME280;14654;48.898;8.308;2024-01-11T08:56:41;101564.78;;;-3.55;100.00
15634;BME280;14654;48.898;8.308;2024-01-11T08:59:07;101564.41;;;-3.47;100.00
15634;BME280;14654;48.898;8.308;2024-01-11T09:01:34;101555.59;;;-3.41;100.00
15634;BME280;14654;48.898;8.308;2024-01-11T09:04:00;101554.47;;;-3.32;100.00
15634;BME280;14654;48.898;8.308;2024-01-11T09:06:26;101572.63;;;-3.26;100.00
15634;BME280;14654;48.898;8.308;2024-01-11T09:08:51;101566.97;;;-3.22;100.00
15634;BME280;14654;48.898;8.308;2024-01-11T09:11:17;101557.94;;;-3.18;100.00
15634;BME280;14654;48.898;8.308;2024-01-11T09:13:42;101560.13;;;-3.23;100.00
15634;BME280;14654;48.898;8.308;2024-01-11T09:16:08;101561.13;;;-3.21;100.00
15634;BME280;14654;48.898;8.308;2024-01-11T09:18:34;101557.13;;;-3.17;100.00
15634;BME280;14654;48.898;8.308;2024-01-11T09:21:00;101548.19;;;-3.12;100.00
15634;BME280;14654;48.898;8.308;2024-01-11T09:23:25;101561.84;;;-3.10;100.00
15634;BME280;14654;48.898;8.308;2024-01-11T09:25:51;101568.47;;;-3.12;100.00
15634;BME280;14654;48.898;8.308;2024-01-11T09:28:16;101561.00;;;-3.11;100.00
15634;BME280;14654;48.898;8.308;2024-01-11T09:30:41;101568.19;;;-3.03;100.00
15634;BME280;14654;48.898;8.308;2024-01-11T09:33:07;101567.66;;;-2.99;100.00
15634;BME280;14654;48.898;8.308;2024-01-11T09:35:32;101565.91;;;-2.87;100.00
15634;BME280;14654;48.898;8.308;2024-01-11T09:37:57;101561.22;;;-2.94;100.00
15634;BME280;14654;48.898;8.308;2024-01-11T09:40:23;101562.19;;;-2.92;100.00
15634;BME280;14654;48.898;8.308;2024-01-11T09:42:48;101567.19;;;-2.80;100.00
15634;BME280;14654;48.898;8.308;2024-01-11T09:45:16;101582.69;;;-2.76;100.00
15634;BME280;14654;48.898;8.308;2024-01-11T09:47:42;101579.59;;;-2.71;100.00
15634;BME280;14654;48.898;8.308;2024-01-11T09:50:09;101589.47;;;-2.63;100.00
15634;BME280;14654;48.898;8.308;2024-01-11T09:52:36;101588.47;;;-2.65;100.00
15634;BME280;14654;48.898;8.308;2024-01-11T09:55:03;101578.84;;;-2.57;100.00
15634;BME280;14654;48.898;8.308;2024-01-11T09:57:30;101581.59;;;-2.54;100.00
15634;BME280;14654;48.898;8.308;2024-01-11T09:59:57;101575.25;;;-2.47;100.00
15634;BME280;14654;48.898;8.308;2024-01-11T10:02:23;101573.59;;;-2.47;100.00
15634;BME280;14654;48.898;8.308;2024-01-11T10:04:50;101575.94;;;-2.50;100.00
15634;BME280;14654;48.898;8.308;2024-01-11T10:07:18;101574.19;;;-2.37;100.00
15634;BME280;14654;48.898;8.308;2024-01-11T10:09:46;101571.84;;;-2.34;100.00
15634;BME280;14654;48.898;8.308;2024-01-11T10:12:11;101572.72;;;-2.20;100.00
15634;BME280;14654;48.898;8.308;2024-01-11T10:14:36;101560.81;;;-2.08;100.00
15634;BME280;14654;48.898;8.308;2024-01-11T10:17:02;101560.75;;;-2.09;100.00
15634;BME280;14654;48.898;8.308;2024-01-11T10:19:28;101548.91;;;-2.09;100.00
15634;BME280;14654;48.898;8.308;2024-01-11T10:21:53;101552.06;;;-2.13;100.00
15634;BME280;14654;48.898;8.308;2024-01-11T10:24:19;101540.44;;;-2.09;100.00
15634;BME280;14654;48.898;8.308;2024-01-11T10:26:45;101541.97;;;-1.98;100.00
15634;BME280;14654;48.898;8.308;2024-01-11T10:29:11;101538.94;;;-1.92;100.00
15634;BME280;14654;48.898;8.308;2024-01-11T10:31:38;101533.56;;;-1.84;100.00
15634;BME280;14654;48.898;8.308;2024-01-11T10:34:04;101534.94;;;-1.75;100.00
15634;BME280;14654;48.898;8.308;2024-01-11T10:36:32;101538.09;;;-1.64;100.00
15634;BME280;14654;48.898;8.308;2024-01-11T10:39:01;101537.25;;;-1.65;100.00
15634;BME280;14654;48.898;8.308;2024-01-11T10:41:29;101531.06;;;-1.55;100.00
15634;BME280;14654;48.898;8.308;2024-01-11T10:43:57;101537.78;;;-1.56;100.00
15634;BME280;14654;48.898;8.308;2024-01-11T10:46:25;101530.75;;;-1.46;100.00
15634;BME280;14654;48.898;8.308;2024-01-11T10:48:55;101537.72;;;-1.42;99.90
15634;BME280;14654;48.898;8.308;2024-01-11T10:51:22;101535.94;;;-1.30;99.29
15634;BME280;14654;48.898;8.308;2024-01-11T10:53:49;101543.72;;;-1.27;99.75
15634;BME280;14654;48.898;8.308;2024-01-11T10:56:16;101539.94;;;-1.33;98.37
15634;BME280;14654;48.898;8.308;2024-01-11T10:58:43;101545.75;;;-1.21;99.03
15634;BME280;14654;48.898;8.308;2024-01-11T11:01:11;101543.50;;;-1.16;98.62
15634;BME280;14654;48.898;8.308;2024-01-11T11:03:37;101542.19;;;-1.10;97.74
15634;BME280;14654;48.898;8.308;2024-01-11T11:06:05;101540.78;;;-1.04;98.01
15634;BME280;14654;48.898;8.308;2024-01-11T11:08:33;101546.31;;;-0.97;97.91
15634;BME280;14654;48.898;8.308;2024-01-11T11:11:03;101540.63;;;-1.08;97.11
15634;BME280;14654;48.898;8.308;2024-01-11T11:13:31;101546.31;;;-1.12;96.65
15634;BME280;14654;48.898;8.308;2024-01-11T11:15:57;101549.03;;;-1.09;97.07
15634;BME280;14654;48.898;8.308;2024-01-11T11:18:23;101540.78;;;-1.04;96.69
15634;BME280;14654;48.898;8.308;2024-01-11T11:20:50;101539.03;;;-1.05;96.22
15634;BME280;14654;48.898;8.308;2024-01-11T11:23:17;101542.31;;;-0.93;96.58
15634;BME280;14654;48.898;8.308;2024-01-11T11:25:44;101540.22;;;-0.85;96.29
15634;BME280;14654;48.898;8.308;2024-01-11T11:28:14;101545.38;;;-0.84;95.95
15634;BME280;14654;48.898;8.308;2024-01-11T11:30:41;101533.56;;;-0.83;95.44
15634;BME280;14654;48.898;8.308;2024-01-11T11:33:16;101531.16;;;-0.80;95.80
15634;BME280;14654;48.898;8.308;2024-01-11T11:35:42;101541.25;;;-0.82;95.38
15634;BME280;14654;48.898;8.308;2024-01-11T11:38:08;101536.38;;;-0.79;95.89
15634;BME280;14654;48.898;8.308;2024-01-11T11:40:36;101530.59;;;-0.61;95.91
15634;BME280;14654;48.898;8.308;2024-01-11T11:43:05;101533.44;;;-0.55;95.30
15634;BME280;14654;48.898;8.308;2024-01-11T11:45:30;101524.31;;;-0.51;95.24
15634;BME280;14654;48.898;8.308;2024-01-11T11:47:56;101513.47;;;-0.49;94.95
15634;BME280;14654;48.898;8.308;2024-01-11T11:50:22;101515.38;;;-0.44;94.44
15634;BME280;14654;48.898;8.308;2024-01-11T11:52:56;101508.56;;;-0.45;93.77
15634;BME280;14654;48.898;8.308;2024-01-11T11:55:25;101509.59;;;-0.42;93.79
15634;BME280;14654;48.898;8.308;2024-01-11T11:57:51;101502.22;;;-0.37;93.88
15634;BME280;14654;48.898;8.308;2024-01-11T12:00:19;101492.22;;;-0.34;94.23
15634;BME280;14654;48.898;8.308;2024-01-11T12:02:46;101494.38;;;-0.25;93.90
15634;BME280;14654;48.898;8.308;2024-01-11T12:05:12;101494.22;;;-0.28;93.40
15634;BME280;14654;48.898;8.308;2024-01-11T12:07:37;101484.81;;;-0.29;93.84
15634;BME280;14654;48.898;8.308;2024-01-11T12:10:04;101479.13;;;-0.25;93.11
15634;BME280;14654;48.898;8.308;2024-01-11T12:12:30;101475.94;;;-0.21;92.82
15634;BME280;14654;48.898;8.308;2024-01-11T12:14:57;101463.50;;;-0.32;92.38
15634;BME280;14654;48.898;8.308;2024-01-11T12:17:23;101484.53;;;-0.19;93.67
15634;BME280;14654;48.898;8.308;2024-01-11T12:19:51;101481.97;;;-0.19;92.94
15634;BME280;14654;48.898;8.308;2024-01-11T12:22:17;101466.72;;;-0.19;92.28
15634;BME280;14654;48.898;8.308;2024-01-11T12:24:42;101472.69;;;-0.19;92.31
15634;BME280;14654;48.898;8.308;2024-01-11T12:27:08;101484.16;;;-0.10;92.78
15634;BME280;14654;48.898;8.308;2024-01-11T12:29:33;101480.09;;;-0.07;92.02
15634;BME280;14654;48.898;8.308;2024-01-11T12:31:59;101467.84;;;-0.14;91.96
15634;BME280;14654;48.898;8.308;2024-01-11T12:34:25;101468.25;;;-0.06;92.53